createdAt,value
2019-04-20T00:00:25.243Z,6.50
2019-04-20T00:01:29.442Z,6.90
2019-04-20T00:02:25.438Z,6.90
2019-04-20T00:03:34.302Z,7.00
2019-04-20T00:04:29.039Z,7.10
2019-04-20T00:05:25.418Z,6.80
2019-04-20T00:06:25.422Z,6.80
2019-04-20T00:07:30.937Z,7.00
2019-04-20T00:08:29.687Z,6.50
2019-04-20T00:09:29.923Z,7.10
2019-04-20T00:10:27.631Z,7.30
2019-04-20T00:11:34.842Z,6.90
2019-04-20T00:12:36.744Z,6.80
2019-04-20T00:13:36.675Z,6.80
2019-04-20T00:14:30.937Z,6.40
2019-04-20T00:15:28.256Z,7.40
2019-04-20T00:16:27.371Z,7.20
2019-04-20T00:17:28.582Z,7.40
2019-04-20T00:18:34.733Z,8.20
2019-04-20T00:19:34.499Z,7.60
2019-04-20T00:20:32.104Z,7.70
2019-04-20T00:21:29.075Z,6.90
2019-04-20T00:22:34.396Z,7.40
2019-04-20T00:23:33.698Z,7.60
2019-04-20T00:24:33.229Z,7.80
2019-04-20T00:25:46.267Z,7.10
2019-04-20T00:27:01.863Z,7.60
2019-04-20T00:27:50.276Z,7.60
2019-04-20T00:28:45.757Z,6.80
2019-04-20T00:29:49.583Z,6.60
2019-04-20T00:30:50.486Z,7.00
2019-04-20T00:31:45.938Z,7.00
2019-04-20T00:32:49.011Z,6.70
2019-04-20T00:33:44.910Z,6.90
2019-04-20T00:34:36.464Z,6.70
2019-04-20T00:35:31.361Z,7.60
2019-04-20T00:36:31.060Z,7.40
2019-04-20T00:37:31.929Z,6.90
2019-04-20T00:38:35.103Z,7.60
2019-04-20T00:39:32.001Z,7.30
2019-04-20T00:40:32.647Z,7.00
2019-04-20T00:41:34.271Z,8.20
2019-04-20T00:42:39.159Z,7.60
2019-04-20T00:43:36.937Z,7.70
2019-04-20T00:44:35.859Z,7.40
2019-04-20T00:45:35.236Z,7.40
2019-04-20T00:46:48.663Z,7.20
2019-04-20T00:47:44.637Z,8.20
2019-04-20T00:48:46.345Z,8.00
2019-04-20T00:49:48.408Z,7.20
2019-04-20T00:50:52.555Z,7.80
2019-04-20T00:51:52.561Z,7.80
2019-04-20T00:52:50.862Z,7.30
2019-04-20T00:53:39.662Z,7.60
2019-04-20T00:54:34.923Z,7.70
2019-04-20T00:55:36.010Z,8.10
2019-04-20T00:56:35.117Z,7.90
2019-04-20T00:57:46.595Z,8.30
2019-04-20T00:58:50.789Z,7.80
2019-04-20T01:01:00.399Z,8.00
2019-04-20T01:01:52.135Z,8.20
2019-04-20T01:02:49.481Z,8.20
2019-04-20T01:03:52.125Z,8.30
2019-04-20T01:04:56.466Z,8.10
2019-04-20T01:05:59.688Z,8.20
2019-04-20T01:06:51.592Z,8.00
2019-04-20T01:07:43.164Z,8.10
2019-04-20T01:08:38.070Z,8.20
2019-04-20T01:09:37.277Z,7.30
2019-04-20T01:10:45.105Z,8.20
2019-04-20T01:11:42.240Z,7.50
2019-04-20T01:12:40.427Z,7.80
2019-04-20T01:13:45.934Z,8.00
2019-04-20T01:14:46.652Z,7.90
2019-04-20T01:15:47.971Z,7.50
2019-04-20T01:16:47.282Z,7.50
2019-04-20T01:17:41.530Z,7.90
2019-04-20T01:18:38.991Z,7.50
2019-04-20T01:19:39.176Z,7.50
2019-04-20T01:20:39.367Z,7.60
2019-04-20T01:21:44.959Z,7.50
2019-04-20T01:22:48.414Z,7.30
2019-04-20T01:23:47.992Z,7.30
2019-04-20T01:24:45.043Z,7.20
2019-04-20T01:25:43.687Z,7.90
2019-04-20T01:26:43.719Z,7.80
2019-04-20T01:28:02.126Z,7.70
2019-04-20T01:28:57.674Z,7.80
2019-04-20T01:29:46.988Z,7.60
2019-04-20T01:30:50.873Z,8.50
2019-04-20T01:31:57.099Z,7.60
2019-04-20T01:32:55.367Z,7.90
2019-04-20T01:33:52.732Z,8.30
2019-04-20T01:34:55.318Z,7.20
2019-04-20T01:36:00.672Z,7.90
2019-04-20T01:36:56.389Z,7.80
2019-04-20T01:38:00.255Z,7.80
2019-04-20T01:38:57.795Z,8.30
2019-04-20T01:39:48.701Z,7.70
2019-04-20T01:40:44.262Z,8.10
2019-04-20T01:41:43.530Z,7.60
2019-04-20T01:42:44.568Z,8.30
2019-04-20T01:43:43.699Z,8.40
2019-04-20T01:44:48.567Z,8.10
2019-04-20T01:45:45.509Z,8.00
2019-04-20T01:46:47.746Z,8.10
2019-04-20T01:47:49.285Z,7.90
2019-04-20T01:48:44.737Z,7.50
2019-04-20T01:49:47.706Z,7.80
2019-04-20T01:50:55.007Z,8.10
2019-04-20T01:51:52.446Z,8.20
2019-04-20T01:52:56.540Z,7.70
2019-04-20T01:53:59.963Z,8.40
2019-04-20T01:55:10.251Z,8.30
2019-04-20T01:56:01.605Z,9.10
2019-04-20T01:56:59.246Z,9.50
2019-04-20T01:58:07.993Z,9.30
2019-04-20T01:59:05.070Z,9.20
2019-04-20T01:59:58.099Z,9.00
2019-04-20T02:00:48.073Z,9.30
2019-04-20T02:01:47.531Z,9.20
2019-04-20T02:02:52.954Z,9.40
2019-04-20T02:03:51.786Z,8.90
2019-04-20T02:04:49.273Z,9.50
2019-04-20T02:05:55.657Z,9.80
2019-04-20T02:06:53.461Z,8.60
2019-04-20T02:07:51.980Z,9.50
2019-04-20T02:08:52.780Z,8.90
2019-04-20T02:09:56.079Z,9.00
2019-04-20T02:10:53.709Z,9.10
2019-04-20T02:11:52.020Z,9.60
2019-04-20T02:12:54.436Z,8.90
2019-04-20T02:13:55.010Z,9.20
2019-04-20T02:14:54.060Z,8.80
2019-04-20T02:15:55.638Z,9.00
2019-04-20T02:16:58.465Z,8.70
2019-04-20T02:18:03.642Z,8.90
2019-04-20T02:19:06.576Z,9.30
2019-04-20T02:20:12.307Z,8.80
2019-04-20T02:21:09.749Z,8.60
2019-04-20T02:22:04.104Z,8.80
2019-04-20T02:23:03.166Z,8.70
2019-04-20T02:23:57.287Z,8.80
2019-04-20T02:24:51.358Z,8.90
2019-04-20T02:25:52.244Z,9.20
2019-04-20T02:26:52.059Z,9.30
2019-04-20T02:27:58.065Z,9.10
2019-04-20T02:29:17.481Z,8.40
2019-04-20T02:30:22.038Z,9.30
2019-04-20T02:31:32.649Z,8.70
2019-04-20T02:32:23.689Z,8.00
2019-04-20T02:33:34.817Z,9.00
2019-04-20T02:34:33.911Z,8.60
2019-04-20T02:35:30.241Z,8.50
2019-04-20T02:36:29.970Z,7.70
2019-04-20T02:37:37.859Z,8.20
2019-04-20T02:38:40.646Z,8.20
2019-04-20T02:40:45.097Z,8.70
2019-04-20T02:41:29.874Z,8.30
2019-04-20T02:42:34.145Z,8.20
2019-04-20T02:43:38.917Z,8.70
2019-04-20T02:44:36.147Z,8.50
2019-04-20T02:46:28.627Z,8.30
2019-04-20T02:47:32.128Z,8.90
2019-04-20T02:48:25.944Z,9.10
2019-04-20T02:50:34.377Z,9.10
2019-04-20T02:51:38.660Z,9.00
2019-04-20T02:52:38.067Z,8.00
2019-04-20T02:53:30.186Z,8.60
2019-04-20T02:54:36.805Z,8.80
2019-04-20T02:56:32.366Z,8.50
2019-04-20T02:57:33.415Z,8.90
2019-04-20T02:58:32.697Z,8.70
2019-04-20T03:00:25.438Z,8.10
2019-04-20T03:01:16.226Z,8.40
2019-04-20T03:02:17.013Z,8.60
2019-04-20T03:03:11.326Z,8.50
2019-04-20T03:04:04.564Z,9.20
2019-04-20T03:05:12.267Z,9.40
2019-04-20T03:06:13.460Z,8.40
2019-04-20T03:07:14.877Z,9.80
2019-04-20T03:08:18.763Z,9.30
2019-04-20T03:09:21.354Z,9.30
2019-04-20T03:10:17.735Z,9.30
2019-04-20T03:11:17.777Z,10.00
2019-04-20T03:12:23.675Z,9.50
2019-04-20T03:13:18.296Z,9.30
2019-04-20T03:14:19.145Z,9.90
2019-04-20T03:15:21.839Z,9.40
2019-04-20T03:16:20.431Z,9.70
2019-04-20T03:17:27.096Z,9.90
2019-04-20T03:18:21.276Z,9.80
2019-04-20T03:19:17.457Z,9.10
2019-04-20T03:20:25.583Z,10.10
2019-04-20T03:21:28.961Z,9.40
2019-04-20T03:22:29.138Z,10.00
2019-04-20T03:23:30.065Z,9.80
2019-04-20T03:24:26.824Z,10.20
2019-04-20T03:25:22.839Z,9.90
2019-04-20T03:26:21.169Z,10.50
2019-04-20T03:27:19.547Z,10.30
2019-04-20T03:28:26.494Z,9.80
2019-04-20T03:29:18.328Z,10.00
2019-04-20T03:31:09.899Z,10.50
2019-04-20T03:31:42.663Z,10.00
2019-04-20T03:32:50.113Z,9.00
2019-04-20T03:33:41.339Z,10.00
2019-04-20T03:35:28.326Z,9.20
2019-04-20T03:36:39.383Z,8.70
2019-04-20T03:37:33.360Z,9.50
2019-04-20T03:38:30.215Z,9.60
2019-04-20T03:39:25.902Z,9.20
2019-04-20T03:40:22.723Z,9.60
2019-04-20T03:41:18.291Z,9.60
2019-04-20T03:42:07.147Z,8.50
2019-04-20T03:43:05.864Z,9.50
2019-04-20T03:44:12.196Z,9.90
2019-04-20T03:45:12.225Z,9.40
2019-04-20T03:46:10.862Z,9.50
2019-04-20T03:47:11.397Z,10.30
2019-04-20T03:48:27.883Z,10.30
2019-04-20T03:49:27.907Z,9.50
2019-04-20T03:50:34.628Z,9.90
2019-04-20T03:52:23.346Z,9.40
2019-04-20T03:53:31.282Z,9.70
2019-04-20T03:54:19.874Z,9.30
2019-04-20T03:55:26.223Z,9.90
2019-04-20T03:56:27.977Z,9.50
2019-04-20T03:57:29.725Z,9.60
2019-04-20T03:58:29.170Z,10.10
2019-04-20T03:59:20.794Z,10.20
2019-04-20T04:00:26.293Z,9.60
2019-04-20T04:01:43.005Z,9.90
2019-04-20T04:02:45.717Z,9.90
2019-04-20T04:03:36.402Z,9.90
2019-04-20T04:05:27.534Z,10.00
2019-04-20T04:06:23.503Z,9.30
2019-04-20T04:07:20.459Z,10.00
2019-04-20T04:08:21.555Z,10.40
2019-04-20T04:09:24.607Z,10.30
2019-04-20T04:10:24.977Z,10.80
2019-04-20T04:11:26.166Z,10.00
2019-04-20T04:12:21.788Z,10.90
2019-04-20T04:13:11.775Z,10.50
2019-04-20T04:14:11.708Z,10.90
2019-04-20T04:15:12.672Z,10.60
2019-04-20T04:16:14.780Z,10.20
2019-04-20T04:17:13.320Z,10.10
2019-04-20T04:18:21.351Z,10.70
2019-04-20T04:19:20.578Z,9.70
2019-04-20T04:20:16.235Z,11.00
2019-04-20T04:21:20.318Z,10.90
2019-04-20T04:22:24.904Z,10.60
2019-04-20T04:23:32.315Z,11.50
2019-04-20T04:24:26.050Z,11.40
2019-04-20T04:25:26.530Z,11.10
2019-04-20T04:26:30.138Z,11.30
2019-04-20T04:27:32.568Z,11.00
2019-04-20T04:28:35.255Z,10.60
2019-04-20T04:29:36.827Z,11.20
2019-04-20T04:30:32.008Z,11.00
2019-04-20T04:31:33.579Z,10.60
2019-04-20T04:33:03.011Z,11.00
2019-04-20T04:34:34.655Z,11.40
2019-04-20T04:35:26.723Z,11.40
2019-04-20T04:36:30.007Z,11.50
2019-04-20T04:37:32.471Z,10.80
2019-04-20T04:38:40.562Z,10.60
2019-04-20T04:39:35.329Z,11.40
2019-04-20T04:40:42.815Z,10.70
2019-04-20T04:41:36.691Z,10.80
2019-04-20T04:42:42.306Z,10.80
2019-04-20T04:43:38.874Z,10.90
2019-04-20T04:44:30.251Z,11.20
2019-04-20T04:45:19.370Z,10.40
2019-04-20T04:46:18.569Z,10.30
2019-04-20T04:47:18.134Z,11.10
2019-04-20T04:48:23.927Z,11.30
2019-04-20T04:49:25.734Z,10.80
2019-04-20T04:50:23.267Z,10.40
2019-04-20T04:51:23.009Z,10.90
2019-04-20T04:52:29.389Z,10.90
2019-04-20T04:53:31.269Z,11.40
2019-04-20T04:54:28.944Z,11.20
2019-04-20T04:55:30.823Z,10.60
2019-04-20T04:56:23.309Z,11.20
2019-04-20T04:57:20.108Z,11.70
2019-04-20T04:58:19.796Z,12.20
2019-04-20T04:59:21.311Z,11.80
2019-04-20T05:00:24.664Z,12.20
2019-04-20T05:01:25.911Z,11.60
2019-04-20T05:02:23.609Z,12.20
2019-04-20T05:03:38.746Z,11.20
2019-04-20T05:04:44.502Z,11.10
2019-04-20T05:05:46.279Z,10.60
2019-04-20T05:06:35.592Z,10.30
2019-04-20T05:07:36.805Z,10.80
2019-04-20T05:08:30.653Z,9.90
2019-04-20T05:09:22.639Z,10.60
2019-04-20T05:10:22.402Z,10.40
2019-04-20T05:11:23.687Z,11.30
2019-04-20T05:12:26.713Z,11.30
2019-04-20T05:13:27.686Z,11.40
2019-04-20T05:14:37.448Z,12.10
2019-04-20T05:15:37.339Z,12.70
2019-04-20T05:16:43.184Z,12.30
2019-04-20T05:17:43.449Z,11.50
2019-04-20T05:18:45.729Z,12.40
2019-04-20T05:19:49.785Z,11.30
2019-04-20T05:20:50.992Z,10.90
2019-04-20T05:21:49.916Z,11.70
2019-04-20T05:22:42.501Z,10.90
2019-04-20T05:23:35.172Z,11.40
2019-04-20T05:24:38.946Z,11.30
2019-04-20T05:25:49.296Z,10.80
2019-04-20T05:26:36.294Z,10.80
2019-04-20T05:27:45.183Z,10.00
2019-04-20T05:28:38.101Z,9.40
2019-04-20T05:29:30.452Z,9.70
2019-04-20T05:30:26.603Z,9.60
2019-04-20T05:31:36.773Z,9.80
2019-04-20T05:32:35.844Z,9.80
2019-04-20T05:33:47.845Z,9.60
2019-04-20T05:34:52.812Z,9.40
2019-04-20T05:35:43.443Z,9.40
2019-04-20T05:36:41.624Z,8.90
2019-04-20T05:37:53.633Z,8.80
2019-04-20T05:38:48.931Z,9.20
2019-04-20T05:39:56.249Z,9.40
2019-04-20T05:40:50.323Z,9.20
2019-04-20T05:41:45.356Z,9.30
2019-04-20T05:42:48.609Z,9.40
2019-04-20T05:43:45.682Z,9.00
2019-04-20T05:44:52.771Z,8.60
2019-04-20T05:45:41.407Z,9.30
2019-04-20T05:46:47.459Z,8.90
2019-04-20T05:47:50.746Z,8.80
2019-04-20T05:48:50.509Z,8.40
2019-04-20T05:49:46.221Z,8.50
2019-04-20T05:50:50.909Z,8.70
2019-04-20T05:51:49.889Z,8.60
2019-04-20T05:52:56.265Z,8.90
2019-04-20T05:53:50.466Z,9.00
2019-04-20T05:54:51.313Z,8.40
2019-04-20T05:55:50.344Z,7.90
2019-04-20T05:56:51.075Z,8.60
2019-04-20T05:57:57.019Z,7.90
2019-04-20T05:58:50.807Z,8.70
2019-04-20T05:59:56.808Z,8.10
2019-04-20T06:00:55.132Z,8.50
2019-04-20T06:01:58.815Z,8.60
2019-04-20T06:02:52.390Z,7.70
2019-04-20T06:03:53.013Z,9.20
2019-04-20T06:05:11.419Z,8.40
2019-04-20T06:05:58.251Z,8.30
2019-04-20T06:06:56.405Z,8.10
2019-04-20T06:07:55.084Z,8.70
2019-04-20T06:08:59.873Z,8.10
2019-04-20T06:09:54.477Z,8.30
2019-04-20T06:10:56.513Z,7.90
2019-04-20T06:12:08.954Z,7.80
2019-04-20T06:12:54.159Z,8.40
2019-04-20T06:13:47.023Z,8.10
2019-04-20T06:14:47.152Z,8.00
2019-04-20T06:15:59.838Z,8.10
2019-04-20T06:17:00.053Z,8.00
2019-04-20T06:17:53.117Z,8.50
2019-04-20T06:18:58.419Z,8.20
2019-04-20T06:20:02.346Z,7.80
2019-04-20T06:20:54.775Z,7.40
2019-04-20T06:21:57.518Z,7.60
2019-04-20T06:23:05.950Z,8.20
2019-04-20T06:23:56.479Z,7.40
2019-04-20T06:25:04.537Z,7.70
2019-04-20T06:27:00.980Z,7.90
2019-04-20T06:28:01.010Z,8.20
2019-04-20T06:28:51.590Z,7.70
2019-04-20T06:29:55.791Z,7.90
2019-04-20T06:30:52.856Z,8.00
2019-04-20T06:31:57.981Z,7.60
2019-04-20T06:32:59.248Z,7.60
2019-04-20T06:34:19.879Z,7.50
2019-04-20T06:34:55.950Z,7.70
2019-04-20T06:37:14.122Z,7.30
2019-04-20T06:38:00.761Z,8.00
2019-04-20T06:39:08.340Z,7.10
2019-04-20T06:40:22.151Z,7.40
2019-04-20T06:42:15.161Z,7.50
2019-04-20T06:43:04.137Z,7.30
2019-04-20T06:44:08.398Z,7.20
2019-04-20T06:45:04.230Z,7.30
2019-04-20T06:47:15.474Z,7.10
2019-04-20T06:48:08.757Z,7.40
2019-04-20T06:49:10.410Z,7.80
2019-04-20T06:50:01.481Z,7.00
2019-04-20T06:50:59.433Z,7.10
2019-04-20T06:52:12.763Z,6.90
2019-04-20T06:53:11.115Z,6.70
2019-04-20T06:53:53.985Z,7.10
2019-04-20T06:54:57.728Z,6.60
2019-04-20T06:56:06.661Z,6.40
2019-04-20T06:57:05.851Z,6.80
2019-04-20T06:58:01.537Z,6.90
2019-04-20T06:59:12.345Z,6.30
2019-04-20T07:00:10.234Z,6.20
2019-04-20T07:01:08.024Z,7.00
2019-04-20T07:02:11.947Z,6.50
2019-04-20T07:03:05.740Z,6.60
2019-04-20T07:04:22.377Z,7.20
2019-04-20T07:05:10.055Z,5.90
2019-04-20T07:06:24.952Z,7.30
2019-04-20T07:07:11.350Z,6.30
2019-04-20T07:08:16.953Z,6.90
2019-04-20T07:09:22.003Z,6.80
2019-04-20T07:10:14.708Z,6.10
2019-04-20T07:11:16.521Z,7.30
2019-04-20T07:12:04.113Z,6.60
2019-04-20T07:13:02.714Z,6.30
2019-04-20T07:13:55.629Z,6.70
2019-04-20T07:14:55.511Z,6.90
2019-04-20T07:16:06.100Z,6.50
2019-04-20T07:17:21.553Z,7.80
2019-04-20T07:18:11.743Z,7.80
2019-04-20T07:19:09.217Z,7.20
2019-04-20T07:20:04.135Z,6.20
2019-04-20T07:21:07.186Z,5.70
2019-04-20T07:22:23.401Z,6.60
2019-04-20T07:23:18.970Z,6.00
2019-04-20T07:24:12.138Z,6.70
2019-04-20T07:25:07.602Z,5.70
2019-04-20T07:26:21.148Z,6.20
2019-04-20T07:27:06.445Z,6.30
2019-04-20T07:28:14.107Z,6.50
2019-04-20T07:29:15.929Z,6.90
2019-04-20T07:30:13.747Z,5.90
2019-04-20T07:31:01.686Z,6.50
2019-04-20T07:32:07.611Z,5.80
2019-04-20T07:33:13.824Z,6.60
2019-04-20T07:34:11.804Z,5.70
2019-04-20T07:35:08.758Z,5.90
2019-04-20T07:37:41.488Z,6.30
2019-04-20T07:38:25.555Z,6.20
2019-04-20T07:39:13.535Z,7.30
2019-04-20T07:40:17.607Z,6.80
2019-04-20T07:41:23.651Z,6.50
2019-04-20T07:42:19.263Z,6.30
2019-04-20T07:43:09.300Z,6.30
2019-04-20T07:44:21.560Z,6.50
2019-04-20T07:45:14.828Z,6.60
2019-04-20T07:46:20.786Z,6.40
2019-04-20T07:47:22.008Z,6.10
2019-04-20T07:48:18.756Z,6.00
2019-04-20T07:49:12.778Z,5.90
2019-04-20T07:50:09.117Z,6.50
2019-04-20T07:51:04.903Z,6.20
2019-04-20T07:51:55.198Z,6.10
2019-04-20T07:53:12.476Z,6.30
2019-04-20T07:54:30.313Z,6.30
2019-04-20T07:56:16.317Z,6.50
2019-04-20T07:57:14.770Z,6.10
2019-04-20T07:58:05.262Z,6.30
2019-04-20T07:59:11.009Z,6.10
2019-04-20T08:00:14.858Z,6.30
2019-04-20T08:01:23.719Z,6.20
2019-04-20T08:02:23.759Z,5.80
2019-04-20T08:03:24.317Z,5.90
2019-04-20T08:04:18.451Z,5.90
2019-04-20T08:05:10.748Z,6.00
2019-04-20T08:06:05.050Z,5.90
2019-04-20T08:07:03.387Z,6.10
2019-04-20T08:08:16.982Z,5.70
2019-04-20T08:09:12.761Z,5.80
2019-04-20T08:10:04.018Z,5.60
2019-04-20T08:11:13.822Z,5.50
2019-04-20T08:12:25.838Z,5.60
2019-04-20T08:13:25.433Z,5.80
2019-04-20T08:14:37.994Z,5.00
2019-04-20T08:15:32.834Z,5.50
2019-04-20T08:16:24.419Z,5.60
2019-04-20T08:17:30.588Z,5.40
2019-04-20T08:18:21.030Z,5.70
2019-04-20T08:19:17.433Z,5.30
2019-04-20T08:20:15.963Z,6.00
2019-04-20T08:21:24.298Z,5.50
2019-04-20T08:22:23.042Z,5.60
2019-04-20T08:23:23.371Z,5.60
2019-04-20T08:24:20.128Z,5.60
2019-04-20T08:25:14.314Z,5.70
2019-04-20T08:26:10.895Z,5.20
2019-04-20T08:27:06.158Z,5.70
2019-04-20T08:28:01.574Z,5.30
2019-04-20T08:29:08.958Z,5.50
2019-04-20T08:30:20.755Z,5.40
2019-04-20T08:31:18.195Z,5.00
2019-04-20T08:32:25.505Z,5.80
2019-04-20T08:33:18.003Z,5.00
2019-04-20T08:34:28.246Z,5.00
2019-04-20T08:35:27.941Z,5.60
2019-04-20T08:36:27.240Z,5.10
2019-04-20T08:37:20.622Z,5.50
2019-04-20T08:38:49.905Z,5.00
2019-04-20T08:39:37.435Z,5.40
2019-04-20T08:40:25.402Z,5.00
2019-04-20T08:41:23.220Z,5.20
2019-04-20T08:42:22.378Z,5.30
2019-04-20T08:43:39.563Z,4.90
2019-04-20T08:45:31.642Z,5.50
2019-04-20T08:46:27.853Z,5.20
2019-04-20T08:47:35.148Z,5.30
2019-04-20T08:48:31.279Z,5.50
2019-04-20T08:49:29.464Z,5.10
2019-04-20T08:50:41.254Z,5.40
2019-04-20T08:51:25.767Z,5.30
2019-04-20T08:52:53.676Z,5.10
2019-04-20T08:53:30.776Z,5.10
2019-04-20T08:54:21.955Z,5.30
2019-04-20T08:55:25.136Z,5.50
2019-04-20T08:56:19.791Z,5.30
2019-04-20T08:57:07.387Z,5.30
2019-04-20T08:58:07.528Z,5.30
2019-04-20T08:59:07.726Z,5.00
2019-04-20T09:00:09.152Z,5.10
2019-04-20T09:01:10.485Z,5.40
2019-04-20T09:02:11.983Z,5.20
2019-04-20T09:03:17.102Z,4.90
2019-04-20T09:04:17.194Z,5.30
2019-04-20T09:05:18.951Z,4.90
2019-04-20T09:06:22.393Z,5.20
2019-04-20T09:07:17.464Z,5.30
2019-04-20T09:08:17.921Z,4.90
2019-04-20T09:09:37.793Z,5.30
2019-04-20T09:10:34.447Z,5.40
2019-04-20T09:11:26.085Z,5.50
2019-04-20T09:12:30.545Z,5.50
2019-04-20T09:13:21.444Z,5.50
2019-04-20T09:14:12.128Z,5.20
2019-04-20T09:15:12.429Z,5.40
2019-04-20T09:16:11.282Z,5.10
2019-04-20T09:17:18.297Z,4.80
2019-04-20T09:18:22.623Z,5.20
2019-04-20T09:19:16.070Z,4.90
2019-04-20T09:20:21.506Z,5.10
2019-04-20T09:21:24.301Z,5.30
2019-04-20T09:22:25.530Z,5.50
2019-04-20T09:23:30.038Z,5.60
2019-04-20T09:24:36.153Z,5.50
2019-04-20T09:26:35.457Z,5.50
2019-04-20T09:27:26.991Z,5.20
2019-04-20T09:28:23.487Z,5.50
2019-04-20T09:29:28.454Z,5.40
2019-04-20T09:30:28.695Z,5.50
2019-04-20T09:31:30.993Z,5.50
2019-04-20T09:32:28.962Z,5.60
2019-04-20T09:33:38.710Z,5.40
2019-04-20T09:34:37.058Z,5.40
2019-04-20T09:35:30.114Z,5.20
2019-04-20T09:36:30.749Z,5.30
2019-04-20T09:37:33.970Z,5.40
2019-04-20T09:38:30.500Z,5.60
2019-04-20T09:39:24.635Z,5.90
2019-04-20T09:40:38.921Z,5.40
2019-04-20T09:41:45.227Z,5.20
2019-04-20T09:42:16.664Z,5.40
2019-04-20T09:43:18.533Z,5.20
2019-04-20T09:44:17.715Z,5.20
2019-04-20T09:45:23.456Z,5.30
2019-04-20T09:46:17.952Z,5.40
2019-04-20T09:47:23.311Z,5.00
2019-04-20T09:48:25.364Z,5.20
2019-04-20T09:49:29.530Z,5.00
2019-04-20T09:50:33.451Z,5.10
2019-04-20T09:51:37.670Z,5.10
2019-04-20T09:52:32.274Z,5.60
2019-04-20T09:53:29.911Z,5.00
2019-04-20T09:54:36.086Z,5.30
2019-04-20T09:55:31.301Z,4.70
2019-04-20T09:56:38.811Z,5.10
2019-04-20T09:57:37.923Z,4.90
2019-04-20T09:58:30.845Z,5.00
2019-04-20T09:59:37.260Z,4.80
2019-04-20T10:00:41.153Z,5.00
2019-04-20T10:01:31.086Z,5.20
2019-04-20T10:02:24.960Z,4.90
2019-04-20T10:03:21.015Z,4.70
2019-04-20T10:04:21.622Z,4.70
2019-04-20T10:05:21.425Z,4.60
2019-04-20T10:06:24.769Z,4.60
2019-04-20T10:07:25.665Z,4.70
2019-04-20T10:08:22.045Z,4.70
2019-04-20T10:09:29.500Z,4.70
2019-04-20T10:10:31.589Z,4.80
2019-04-20T10:11:23.641Z,5.10
2019-04-20T10:12:24.113Z,5.10
2019-04-20T10:13:23.069Z,4.60
2019-04-20T10:14:24.722Z,4.80
2019-04-20T10:15:27.601Z,4.50
2019-04-20T10:16:23.882Z,5.00
2019-04-20T10:17:26.659Z,4.80
2019-04-20T10:18:24.091Z,4.40
2019-04-20T10:19:30.179Z,4.00
2019-04-20T10:20:31.011Z,4.20
2019-04-20T10:21:25.725Z,4.30
2019-04-20T10:22:24.908Z,3.70
2019-04-20T10:23:25.159Z,3.80
2019-04-20T10:24:26.450Z,3.70
2019-04-20T10:25:26.673Z,3.70
2019-04-20T10:26:26.945Z,3.80
2019-04-20T10:27:26.465Z,3.80
2019-04-20T10:28:27.413Z,3.80
2019-04-20T10:29:26.345Z,3.70
2019-04-20T10:30:26.556Z,3.70
2019-04-20T10:31:26.769Z,3.80
2019-04-20T10:32:34.213Z,3.50
2019-04-20T10:33:27.839Z,3.60
2019-04-20T10:34:28.510Z,3.70
2019-04-20T10:35:27.660Z,4.00
2019-04-20T10:36:27.837Z,3.30
2019-04-20T10:37:29.265Z,3.30
2019-04-20T10:38:30.975Z,3.40
2019-04-20T10:39:28.777Z,3.00
2019-04-20T10:40:41.508Z,3.60
2019-04-20T10:41:38.000Z,4.00
2019-04-20T10:42:30.157Z,3.80
2019-04-20T10:43:30.222Z,4.00
2019-04-20T10:44:29.445Z,3.80
2019-04-20T10:45:30.824Z,3.80
2019-04-20T10:46:31.037Z,3.80
2019-04-20T10:47:30.038Z,4.00
2019-04-20T10:48:32.868Z,3.90
2019-04-20T10:49:31.165Z,4.20
2019-04-20T10:50:32.155Z,4.00
2019-04-20T10:51:31.461Z,4.00
2019-04-20T10:52:32.026Z,3.80
2019-04-20T10:53:32.182Z,3.90
2019-04-20T10:54:32.385Z,4.40
2019-04-20T10:55:31.683Z,4.20
2019-04-20T10:56:31.884Z,4.00
2019-04-20T10:57:33.310Z,3.80
2019-04-20T10:58:33.647Z,3.70
2019-04-20T10:59:33.904Z,4.20
2019-04-20T11:00:33.415Z,4.10
2019-04-20T11:01:33.740Z,4.50
2019-04-20T11:02:35.009Z,4.50
2019-04-20T11:03:34.566Z,4.30
2019-04-20T11:04:34.593Z,4.30
2019-04-20T11:05:34.773Z,4.60
2019-04-20T11:06:34.544Z,4.60
2019-04-20T11:07:34.660Z,4.80
2019-04-20T11:08:34.862Z,4.40
2019-04-20T11:09:34.560Z,4.40
2019-04-20T11:10:49.400Z,4.90
2019-04-20T11:11:35.791Z,4.80
2019-04-20T11:12:35.179Z,5.00
2019-04-20T11:13:35.385Z,4.60
2019-04-20T11:14:38.755Z,4.80
2019-04-20T11:15:36.651Z,4.70
2019-04-20T11:16:36.182Z,5.00
2019-04-20T11:17:37.140Z,4.60
2019-04-20T11:18:37.583Z,4.80
2019-04-20T11:19:37.125Z,5.10
2019-04-20T11:20:37.305Z,4.60
2019-04-20T11:21:37.026Z,4.40
2019-04-20T11:22:38.017Z,4.80
2019-04-20T11:23:38.317Z,5.00
2019-04-20T11:24:38.609Z,4.80
2019-04-20T11:25:38.040Z,5.10
2019-04-20T11:26:39.705Z,4.90
2019-04-20T11:27:38.395Z,4.90
2019-04-20T11:28:38.429Z,4.80
2019-04-20T11:29:38.627Z,4.20
2019-04-20T11:30:38.830Z,5.20
2019-04-20T11:31:44.308Z,4.80
2019-04-20T11:32:40.214Z,4.90
2019-04-20T11:33:40.401Z,5.10
2019-04-20T11:34:41.687Z,5.30
2019-04-20T11:35:43.048Z,5.00
2019-04-20T11:36:41.144Z,6.10
2019-04-20T11:37:40.245Z,5.60
2019-04-20T11:38:40.759Z,5.40
2019-04-20T11:39:41.095Z,5.10
2019-04-20T11:40:42.098Z,5.40
2019-04-20T11:41:41.500Z,5.20
2019-04-20T11:42:41.634Z,5.10
2019-04-20T11:43:41.962Z,5.30
2019-04-20T11:44:42.430Z,5.40
2019-04-20T11:45:42.716Z,5.70
2019-04-20T11:46:42.942Z,5.90
2019-04-20T11:47:43.285Z,5.30
2019-04-20T11:48:43.474Z,6.20
2019-04-20T11:49:43.718Z,6.10
2019-04-20T11:50:43.416Z,5.90
2019-04-20T11:51:43.506Z,5.40
2019-04-20T11:52:47.534Z,5.50
2019-04-20T11:53:43.445Z,5.90
2019-04-20T11:54:44.363Z,6.50
2019-04-20T11:55:44.581Z,7.00
2019-04-20T11:56:47.162Z,6.30
2019-04-20T11:57:45.240Z,6.10
2019-04-20T11:58:44.899Z,5.90
2019-04-20T11:59:45.301Z,5.30
2019-04-20T12:00:53.978Z,6.20
2019-04-20T12:01:51.980Z,6.50
2019-04-20T12:02:47.618Z,6.00
2019-04-20T12:03:56.476Z,5.60
2019-04-20T12:04:51.846Z,5.80
2019-04-20T12:05:51.510Z,5.70
2019-04-20T12:06:46.608Z,6.20
2019-04-20T12:07:46.928Z,5.60
2019-04-20T12:08:47.059Z,6.10
2019-04-20T12:09:47.296Z,5.90
2019-04-20T12:10:49.406Z,5.70
2019-04-20T12:11:59.715Z,5.70
2019-04-20T12:12:50.476Z,6.30
2019-04-20T12:13:48.605Z,6.10
2019-04-20T12:14:48.484Z,6.10
2019-04-20T12:15:47.818Z,6.00
2019-04-20T12:16:48.014Z,6.10
2019-04-20T12:17:49.409Z,5.50
2019-04-20T12:18:48.406Z,6.00
2019-04-20T12:19:50.070Z,6.10
2019-04-20T12:20:48.809Z,7.10
2019-04-20T12:21:49.656Z,5.80
2019-04-20T12:22:50.361Z,6.00
2019-04-20T12:23:49.406Z,5.80
2019-04-20T12:24:50.007Z,5.70
2019-04-20T12:25:50.187Z,5.50
2019-04-20T12:26:51.021Z,5.70
2019-04-20T12:27:53.825Z,6.30
2019-04-20T12:28:51.547Z,7.00
2019-04-20T12:29:51.955Z,6.20
2019-04-20T12:30:51.520Z,7.00
2019-04-20T12:31:56.263Z,5.90
2019-04-20T12:32:55.440Z,6.20
2019-04-20T12:33:52.525Z,6.10
2019-04-20T12:34:51.561Z,6.20
2019-04-20T12:35:52.156Z,6.30
2019-04-20T12:36:53.210Z,6.00
2019-04-20T12:37:52.151Z,6.60
2019-04-20T12:38:53.149Z,5.90
2019-04-20T12:39:53.268Z,5.80
2019-04-20T12:40:52.773Z,6.10
2019-04-20T12:41:57.936Z,5.80
2019-04-20T12:42:53.150Z,5.60
2019-04-20T12:43:53.895Z,5.60
2019-04-20T12:44:53.558Z,6.10
2019-04-20T12:45:53.897Z,5.80
2019-04-20T12:46:54.031Z,6.20
2019-04-20T12:47:55.476Z,6.20
2019-04-20T12:48:55.583Z,6.30
2019-04-20T12:49:55.742Z,5.70
2019-04-20T12:50:55.460Z,7.60
2019-04-20T12:51:59.644Z,7.80
2019-04-20T12:52:56.641Z,6.70
2019-04-20T12:53:56.316Z,7.60
2019-04-20T12:54:56.570Z,5.90
2019-04-20T12:55:56.788Z,5.80
2019-04-20T12:56:56.320Z,6.20
2019-04-20T12:57:56.665Z,6.60
2019-04-20T12:58:57.708Z,5.90
2019-04-20T12:59:57.276Z,6.10
2019-04-20T13:00:56.734Z,6.00
2019-04-20T13:01:57.491Z,6.20
2019-04-20T13:02:57.121Z,6.50
2019-04-20T13:03:57.432Z,5.80
2019-04-20T13:04:57.548Z,6.20
2019-04-20T13:05:58.180Z,6.20
2019-04-20T13:06:57.909Z,6.10
2019-04-20T13:08:01.017Z,6.10
2019-04-20T13:09:00.567Z,6.10
2019-04-20T13:09:59.134Z,6.30
2019-04-20T13:10:58.701Z,6.60
2019-04-20T13:12:03.533Z,6.40
2019-04-20T13:13:00.425Z,6.40
2019-04-20T13:13:59.315Z,6.30
2019-04-20T13:15:00.254Z,6.20
2019-04-20T13:16:00.523Z,6.20
2019-04-20T13:16:59.894Z,6.10
2019-04-20T13:18:01.200Z,6.10
2019-04-20T13:19:01.488Z,5.90
2019-04-20T13:20:00.488Z,6.50
2019-04-20T13:21:01.716Z,6.60
2019-04-20T13:22:01.158Z,6.30
2019-04-20T13:23:03.860Z,6.80
2019-04-20T13:24:01.283Z,7.30
2019-04-20T13:25:01.481Z,6.30
2019-04-20T13:26:02.682Z,6.40
2019-04-20T13:27:02.880Z,6.10
2019-04-20T13:28:03.194Z,5.90
2019-04-20T13:29:02.488Z,5.80
2019-04-20T13:30:03.234Z,5.90
2019-04-20T13:31:03.871Z,5.90
2019-04-20T13:32:02.870Z,5.40
2019-04-20T13:33:03.880Z,5.80
2019-04-20T13:34:03.600Z,6.00
2019-04-20T13:35:04.510Z,5.70
2019-04-20T13:36:04.080Z,6.00